Terminal Aerodrome Forecast
Issued by NWS

Home | Current Version | Previous Version | Text Only | Print | Product List | Glossary On
Versions: 1 2 3 4 5 6 7 8 9 10 11 12 13 14 15 16 17 18
000
FTUS44 KCRP 290500
TAFLRD
TAF
KLRD 290520Z 2906/3006 15012KT P6SM SKC
     FM291500 16016G21KT P6SM SKC
     FM300500 16013KT P6SM FEW014=

USA.gov is the U.S. government's official web portal to all federal, state and local government web resources and services.